Ackley, IA

6:03 AM CDT on March 28, 2015 (GMT -0500)
IADOT Steamboat Rock (US20) | | Change Station
CLOSE
Current Station
Personal Weather Station
Location: Steamboat Rock, IA
Elevation: 1049 ft
Nearby Weather Stations

Elev 1049 ft 42.45 °N, 93.06 °W | Updated 59 minutes ago

Partly Cloudy
Partly Cloudy
23 °F
Feels Like 18 °F
N
4
Wind Variable Wind from SE
Gusts 5.0 mph

Today
High -- | Low -- °F
--% Chance of Precip.
Yesterday
High -- | Low -- °F
Precip. -- in
7:01 AM 7:33 PM
First Quarter, 61% visible
Pressure 30.19 in
Visibility 10.0 miles
Clouds Scattered Clouds 7500 ft
Windchill 18 °F
Dew Point 17 °F
Humidity 79%
Rainfall in
Snow Depth Not available.
UV 0 out of 12
Pollen 2.70 out of 12
Air Quality Not available.
Flu Activity Not available.
METAR KIFA 281055Z AUTO 12005KT 10SM SCT075 M05/M08 A3019 RMK AO2 T10471080

More Conditions Fewer Conditions

Pressure 30.19 in
Visibility 10.0 miles
Clouds Scattered Clouds 7500 ft
Windchill 18 °F
Dew Point 17 °F
Humidity 79%
Rainfall in
Snow Depth Not available.
UV 0 out of 12
Pollen 2.70 out of 12
Air Quality Not available.
Flu Activity Not available.
METAR KIFA 281055Z AUTO 12005KT 10SM SCT075 M05/M08 A3019 RMK AO2 T10471080

More Conditions Fewer Conditions

10-Day Weather Forecast

Almanac

Astronomy

Mar. 28, 2015 Rise Set
Actual Time
Civil Twilight
Nautical Twilight
Astronomical Twilight
Moon
Length of Visible Light
Length of Day
Tomorrow will be .
, % of the Moon is Illuminated

Today's Extremes

State Highs State Lows

Community

WunderPhotos

Upload Photos

1,808,955 photos uploaded!

WunderBlogs® & News

Nearby

Air Quality

  Air Quality AQ Index Pollutant
Not available.

Snow Depth

Station Depth Elevation

Earthquake Activity

City Distance Mag. Time & Date
Minimum magnitude displayed is 2.5.

Coastal Water Temperatures

Place Temperature

Stations

Nearby Weather Stations

Station Location Temp. Windchill Dew Point Humidity Wind Precip. Elev Updated Type